sensor_id;sensor_type;location;lat;lon;timestamp;pressure;altitude;pressure_sealevel;temperature;humidity
20444;BME280;10381;53.730;10.010;2023-02-10T00:02:21;102730.25;;;2.19;100.00
20444;BME280;10381;53.730;10.010;2023-02-10T00:06:23;102740.69;;;2.20;100.00
20444;BME280;10381;53.730;10.010;2023-02-10T00:10:24;102731.66;;;2.35;100.00
20444;BME280;10381;53.730;10.010;2023-02-10T00:14:24;102734.31;;;2.33;100.00
20444;BME280;10381;53.730;10.010;2023-02-10T00:18:26;102741.44;;;2.27;100.00
20444;BME280;10381;53.730;10.010;2023-02-10T00:22:27;102736.06;;;2.33;100.00
20444;BME280;10381;53.730;10.010;2023-02-10T00:26:27;102732.69;;;2.28;100.00
20444;BME280;10381;53.730;10.010;2023-02-10T00:30:28;102740.47;;;2.31;100.00
20444;BME280;10381;53.730;10.010;2023-02-10T00:34:28;102741.38;;;2.28;100.00
20444;BME280;10381;53.730;10.010;2023-02-10T00:38:28;102742.22;;;2.30;100.00
20444;BME280;10381;53.730;10.010;2023-02-10T00:42:29;102744.81;;;2.30;100.00
20444;BME280;10381;53.730;10.010;2023-02-10T00:46:29;102749.94;;;2.37;100.00
20444;BME280;10381;53.730;10.010;2023-02-10T00:50:29;102765.53;;;2.41;100.00
20444;BME280;10381;53.730;10.010;2023-02-10T00:54:30;102759.47;;;2.39;100.00
20444;BME280;10381;53.730;10.010;2023-02-10T00:58:30;102758.34;;;2.49;100.00
20444;BME280;10381;53.730;10.010;2023-02-10T01:02:31;102748.94;;;2.42;100.00
20444;BME280;10381;53.730;10.010;2023-02-10T01:06:31;102770.59;;;2.47;100.00
20444;BME280;10381;53.730;10.010;2023-02-10T01:10:33;102774.16;;;2.45;100.00
20444;BME280;10381;53.730;10.010;2023-02-10T01:14:36;102768.97;;;2.43;100.00
20444;BME280;10381;53.730;10.010;2023-02-10T01:18:37;102762.06;;;2.41;100.00
20444;BME280;10381;53.730;10.010;2023-02-10T01:22:37;102767.00;;;2.53;100.00
20444;BME280;10381;53.730;10.010;2023-02-10T01:26:37;102760.09;;;2.50;100.00
20444;BME280;10381;53.730;10.010;2023-02-10T01:30:38;102764.50;;;2.48;100.00
20444;BME280;10381;53.730;10.010;2023-02-10T01:34:38;102755.94;;;2.40;100.00
20444;BME280;10381;53.730;10.010;2023-02-10T01:38:38;102738.09;;;2.20;100.00
20444;BME280;10381;53.730;10.010;2023-02-10T01:42:39;102740.94;;;2.09;100.00
20444;BME280;10381;53.730;10.010;2023-02-10T01:46:42;102730.88;;;1.91;100.00
20444;BME280;10381;53.730;10.010;2023-02-10T01:50:57;102740.59;;;1.84;100.00
20444;BME280;10381;53.730;10.010;2023-02-10T01:55:07;102745.88;;;1.83;100.00
20444;BME280;10381;53.730;10.010;2023-02-10T01:59:09;102743.19;;;1.84;100.00
20444;BME280;10381;53.730;10.010;2023-02-10T02:03:10;102751.84;;;1.88;100.00
20444;BME280;10381;53.730;10.010;2023-02-10T02:07:11;102745.88;;;1.83;100.00
20444;BME280;10381;53.730;10.010;2023-02-10T02:29:23;102746.81;;;1.79;100.00
20444;BME280;10381;53.730;10.010;2023-02-10T02:33:39;102754.91;;;1.66;100.00
20444;BME280;10381;53.730;10.010;2023-02-10T02:37:42;102768.97;;;1.58;100.00
20444;BME280;10381;53.730;10.010;2023-02-10T02:41:43;102766.88;;;1.78;100.00
20444;BME280;10381;53.730;10.010;2023-02-10T02:53:53;102768.88;;;1.64;100.00
20444;BME280;10381;53.730;10.010;2023-02-10T02:58:04;102768.00;;;1.63;100.00
20444;BME280;10381;53.730;10.010;2023-02-10T03:02:12;102766.13;;;1.70;100.00
20444;BME280;10381;53.730;10.010;2023-02-10T03:06:13;102769.66;;;1.67;100.00
20444;BME280;10381;53.730;10.010;2023-02-10T03:10:14;102765.19;;;1.74;100.00
20444;BME280;10381;53.730;10.010;2023-02-10T03:14:14;102760.81;;;1.75;100.00
20444;BME280;10381;53.730;10.010;2023-02-10T03:18:15;102752.88;;;1.81;100.00
20444;BME280;10381;53.730;10.010;2023-02-10T03:22:15;102760.81;;;1.75;100.00
20444;BME280;10381;53.730;10.010;2023-02-10T03:26:15;102753.72;;;1.83;100.00
20444;BME280;10381;53.730;10.010;2023-02-10T03:30:16;102752.81;;;1.84;100.00
20444;BME280;10381;53.730;10.010;2023-02-10T03:34:16;102754.41;;;1.89;100.00
20444;BME280;10381;53.730;10.010;2023-02-10T03:38:17;102759.81;;;1.82;100.00
20444;BME280;10381;53.730;10.010;2023-02-10T03:42:17;102767.50;;;1.89;100.00
20444;BME280;10381;53.730;10.010;2023-02-10T03:46:17;102764.03;;;1.89;100.00
20444;BME280;10381;53.730;10.010;2023-02-10T03:50:18;102758.81;;;1.87;100.00
20444;BME280;10381;53.730;10.010;2023-02-10T03:54:18;102772.75;;;1.88;100.00
20444;BME280;10381;53.730;10.010;2023-02-10T03:58:18;102770.00;;;1.96;100.00
20444;BME280;10381;53.730;10.010;2023-02-10T04:02:19;102767.31;;;1.97;100.00
20444;BME280;10381;53.730;10.010;2023-02-10T04:06:19;102772.59;;;1.96;100.00
20444;BME280;10381;53.730;10.010;2023-02-10T04:10:19;102783.97;;;1.93;100.00
20444;BME280;10381;53.730;10.010;2023-02-10T04:14:20;102782.28;;;1.90;100.00
20444;BME280;10381;53.730;10.010;2023-02-10T04:18:20;102782.22;;;1.95;100.00
20444;BME280;10381;53.730;10.010;2023-02-10T04:22:21;102781.47;;;1.87;100.00
20444;BME280;10381;53.730;10.010;2023-02-10T04:26:22;102787.63;;;1.86;100.00
20444;BME280;10381;53.730;10.010;2023-02-10T04:30:22;102791.88;;;1.90;100.00
20444;BME280;10381;53.730;10.010;2023-02-10T04:34:22;102792.78;;;1.89;100.00
20444;BME280;10381;53.730;10.010;2023-02-10T04:38:23;102798.03;;;1.87;100.00
20444;BME280;10381;53.730;10.010;2023-02-10T04:42:24;102799.84;;;1.84;100.00
20444;BME280;10381;53.730;10.010;2023-02-10T04:46:29;102791.09;;;1.85;100.00
20444;BME280;10381;53.730;10.010;2023-02-10T04:50:31;102793.09;;;1.74;100.00
20444;BME280;10381;53.730;10.010;2023-02-10T04:54:31;102799.91;;;1.81;100.00
20444;BME280;10381;53.730;10.010;2023-02-10T04:58:32;102810.38;;;1.79;100.00
20444;BME280;10381;53.730;10.010;2023-02-10T05:02:32;102822.50;;;1.83;100.00
20444;BME280;10381;53.730;10.010;2023-02-10T05:06:33;102819.94;;;1.80;100.00
20444;BME280;10381;53.730;10.010;2023-02-10T05:10:33;102830.38;;;1.80;100.00
20444;BME280;10381;53.730;10.010;2023-02-10T05:14:33;102835.69;;;1.77;100.00
20444;BME280;10381;53.730;10.010;2023-02-10T05:18:34;102843.38;;;1.85;100.00
20444;BME280;10381;53.730;10.010;2023-02-10T05:22:38;102843.38;;;1.85;100.00
20444;BME280;10381;53.730;10.010;2023-02-10T05:26:38;102848.59;;;1.85;100.00
20444;BME280;10381;53.730;10.010;2023-02-10T05:30:39;102852.13;;;1.84;100.00
20444;BME280;10381;53.730;10.010;2023-02-10T05:34:39;102853.81;;;1.85;100.00
20444;BME280;10381;53.730;10.010;2023-02-10T05:38:39;102848.66;;;1.82;100.00
20444;BME280;10381;53.730;10.010;2023-02-10T05:42:59;102850.50;;;1.77;100.00
20444;BME280;10381;53.730;10.010;2023-02-10T05:47:00;102854.78;;;1.81;100.00
20444;BME280;10381;53.730;10.010;2023-02-10T05:51:00;102854.78;;;1.81;100.00
20444;BME280;10381;53.730;10.010;2023-02-10T05:55:00;102848.88;;;1.71;100.00
20444;BME280;10381;53.730;10.010;2023-02-10T05:59:01;102852.06;;;1.87;100.00
20444;BME280;10381;53.730;10.010;2023-02-10T06:03:01;102854.78;;;1.81;100.00
20444;BME280;10381;53.730;10.010;2023-02-10T06:07:02;102853.19;;;1.74;100.00
20444;BME280;10381;53.730;10.010;2023-02-10T06:11:02;102867.13;;;1.73;100.00
20444;BME280;10381;53.730;10.010;2023-02-10T06:15:02;102869.81;;;1.68;100.00
20444;BME280;10381;53.730;10.010;2023-02-10T06:19:03;102877.53;;;1.76;100.00
20444;BME280;10381;53.730;10.010;2023-02-10T06:23:04;102879.09;;;1.86;100.00
20444;BME280;10381;53.730;10.010;2023-02-10T06:27:04;102880.09;;;1.77;100.00
20444;BME280;10381;53.730;10.010;2023-02-10T06:31:05;102876.63;;;1.77;100.00
20444;BME280;10381;53.730;10.010;2023-02-10T06:35:07;102884.53;;;1.74;100.00
20444;BME280;10381;53.730;10.010;2023-02-10T06:39:08;102886.31;;;1.72;100.00
20444;BME280;10381;53.730;10.010;2023-02-10T06:43:08;102886.25;;;1.75;100.00
20444;BME280;10381;53.730;10.010;2023-02-10T06:47:09;102890.63;;;1.74;100.00
20444;BME280;10381;53.730;10.010;2023-02-10T06:51:09;102894.94;;;1.77;100.00
20444;BME280;10381;53.730;10.010;2023-02-10T06:55:10;102903.41;;;1.91;100.00
20444;BME280;10381;53.730;10.010;2023-02-10T06:59:11;102906.06;;;1.88;100.00
20444;BME280;10381;53.730;10.010;2023-02-10T07:03:13;102900.84;;;1.86;100.00
20444;BME280;10381;53.730;10.010;2023-02-10T07:07:14;102911.22;;;1.92;100.00
20444;BME280;10381;53.730;10.010;2023-02-10T07:11:14;102904.09;;;1.99;100.00
20444;BME280;10381;53.730;10.010;2023-02-10T07:15:15;102911.94;;;1.99;100.00
20444;BME280;10381;53.730;10.010;2023-02-10T07:19:17;102912.00;;;1.96;100.00
20444;BME280;10381;53.730;10.010;2023-02-10T07:23:17;102917.25;;;1.96;100.00
20444;BME280;10381;53.730;10.010;2023-02-10T07:27:17;102925.00;;;2.01;100.00
20444;BME280;10381;53.730;10.010;2023-02-10T07:31:17;102929.38;;;2.00;100.00
20444;BME280;10381;53.730;10.010;2023-02-10T07:35:18;102931.03;;;2.04;100.00
20444;BME280;10381;53.730;10.010;2023-02-10T07:39:18;102930.06;;;2.10;100.00
20444;BME280;10381;53.730;10.010;2023-02-10T07:43:19;102926.47;;;2.16;100.00
20444;BME280;10381;53.730;10.010;2023-02-10T07:47:19;102942.97;;;2.19;100.00
20444;BME280;10381;53.730;10.010;2023-02-10T07:51:19;102934.25;;;2.19;100.00
20444;BME280;10381;53.730;10.010;2023-02-10T07:55:19;102941.97;;;2.26;100.00
20444;BME280;10381;53.730;10.010;2023-02-10T07:59:20;102946.22;;;2.32;100.00
20444;BME280;10381;53.730;10.010;2023-02-10T08:03:20;102951.34;;;2.37;100.00
20444;BME280;10381;53.730;10.010;2023-02-10T08:07:20;102951.31;;;2.38;100.00
20444;BME280;10381;53.730;10.010;2023-02-10T08:11:21;102952.91;;;2.45;100.00
20444;BME280;10381;53.730;10.010;2023-02-10T08:15:21;102947.59;;;2.50;100.00
20444;BME280;10381;53.730;10.010;2023-02-10T08:19:22;102946.72;;;2.51;100.00
20444;BME280;10381;53.730;10.010;2023-02-10T08:23:22;102936.25;;;2.51;100.00
20444;BME280;10381;53.730;10.010;2023-02-10T08:27:23;102942.44;;;2.47;100.00
20444;BME280;10381;53.730;10.010;2023-02-10T08:31:23;102939.75;;;2.50;100.00
20444;BME280;10381;53.730;10.010;2023-02-10T08:35:24;102925.56;;;2.62;100.00
20444;BME280;10381;53.730;10.010;2023-02-10T08:39:26;102941.22;;;2.63;100.00
20444;BME280;10381;53.730;10.010;2023-02-10T08:43:27;102940.97;;;2.75;100.00
20444;BME280;10381;53.730;10.010;2023-02-10T08:47:28;102949.41;;;2.88;100.00
20444;BME280;10381;53.730;10.010;2023-02-10T08:51:29;102935.47;;;2.88;100.00
20444;BME280;10381;53.730;10.010;2023-02-10T08:55:30;102931.25;;;2.82;100.00
20444;BME280;10381;53.730;10.010;2023-02-10T08:59:30;102922.44;;;2.86;100.00
20444;BME280;10381;53.730;10.010;2023-02-10T09:03:30;102937.66;;;3.08;100.00
20444;BME280;10381;53.730;10.010;2023-02-10T09:07:32;102944.63;;;3.09;100.00
20444;BME280;10381;53.730;10.010;2023-02-10T09:11:33;102939.28;;;3.13;100.00
20444;BME280;10381;53.730;10.010;2023-02-10T09:15:33;102935.91;;;3.08;100.00
20444;BME280;10381;53.730;10.010;2023-02-10T09:19:37;102927.81;;;3.17;100.00
20444;BME280;10381;53.730;10.010;2023-02-10T09:23:37;102930.69;;;3.07;100.00
20444;BME280;10381;53.730;10.010;2023-02-10T09:27:38;102945.31;;;3.17;100.00
20444;BME280;10381;53.730;10.010;2023-02-10T09:31:38;102949.03;;;3.07;100.00
20444;BME280;10381;53.730;10.010;2023-02-10T09:35:39;102940.44;;;3.00;100.00
20444;BME280;10381;53.730;10.010;2023-02-10T09:39:40;102947.28;;;3.07;100.00
20444;BME280;10381;53.730;10.010;2023-02-10T09:52:57;102941.44;;;2.94;100.00
20444;BME280;10381;53.730;10.010;2023-02-10T09:57:12;102955.03;;;3.12;100.00
20444;BME280;10381;53.730;10.010;2023-02-10T10:01:37;102941.91;;;3.13;100.00
20444;BME280;10381;53.730;10.010;2023-02-10T10:10:17;102945.06;;;3.28;100.00
20444;BME280;10381;53.730;10.010;2023-02-10T10:14:24;102959.09;;;3.25;100.00
20444;BME280;10381;53.730;10.010;2023-02-10T10:27:19;102946.16;;;3.56;100.00
20444;BME280;10381;53.730;10.010;2023-02-10T10:31:37;102948.16;;;3.81;100.00
20444;BME280;10381;53.730;10.010;2023-02-10T10:35:42;102941.38;;;3.72;100.00
20444;BME280;10381;53.730;10.010;2023-02-10T10:39:49;102935.69;;;3.89;100.00
20444;BME280;10381;53.730;10.010;2023-02-10T10:43:53;102934.28;;;4.10;100.00
20444;BME280;10381;53.730;10.010;2023-02-10T10:48:14;102925.00;;;3.97;100.00
20444;BME280;10381;53.730;10.010;2023-02-10T10:52:28;102919.69;;;4.00;100.00
20444;BME280;10381;53.730;10.010;2023-02-10T10:56:54;102915.00;;;4.11;100.00
20444;BME280;10381;53.730;10.010;2023-02-10T11:00:58;102913.88;;;4.21;100.00
20444;BME280;10381;53.730;10.010;2023-02-10T11:05:04;102898.13;;;4.53;100.00
20444;BME280;10381;53.730;10.010;2023-02-10T11:09:14;102891.84;;;4.27;100.00
20444;BME280;10381;53.730;10.010;2023-02-10T11:13:18;102895.38;;;4.56;100.00
20444;BME280;10381;53.730;10.010;2023-02-10T11:17:38;102883.56;;;4.41;100.00
20444;BME280;10381;53.730;10.010;2023-02-10T11:21:43;102879.63;;;4.56;100.00
20444;BME280;10381;53.730;10.010;2023-02-10T11:25:54;102881.00;;;4.69;100.00
20444;BME280;10381;53.730;10.010;2023-02-10T11:29:58;102883.72;;;4.36;100.00
20444;BME280;10381;53.730;10.010;2023-02-10T11:34:12;102890.97;;;4.26;100.00
20444;BME280;10381;53.730;10.010;2023-02-10T11:38:20;102886.03;;;4.16;100.00
20444;BME280;10381;53.730;10.010;2023-02-10T11:42:26;102876.41;;;4.16;100.00
20444;BME280;10381;53.730;10.010;2023-02-10T11:46:29;102867.63;;;4.17;100.00
20444;BME280;10381;53.730;10.010;2023-02-10T11:50:32;102854.63;;;4.42;100.00
20444;BME280;10381;53.730;10.010;2023-02-10T11:54:34;102849.94;;;4.24;100.00
20444;BME280;10381;53.730;10.010;2023-02-10T11:58:44;102845.66;;;4.51;100.00
20444;BME280;10381;53.730;10.010;2023-02-10T12:03:30;102838.53;;;4.83;100.00
20444;BME280;10381;53.730;10.010;2023-02-10T12:16:04;102814.59;;;5.45;100.00
20444;BME280;10381;53.730;10.010;2023-02-10T12:24:45;102804.38;;;5.11;100.00
20444;BME280;10381;53.730;10.010;2023-02-10T12:29:18;102796.47;;;5.38;100.00
20444;BME280;10381;53.730;10.010;2023-02-10T12:33:45;102796.78;;;5.79;100.00
20444;BME280;10381;53.730;10.010;2023-02-10T12:38:19;102790.09;;;5.45;100.00
20444;BME280;10381;53.730;10.010;2023-02-10T12:43:05;102784.13;;;5.90;100.00
20444;BME280;10381;53.730;10.010;2023-02-10T12:47:24;102767.69;;;5.83;100.00
20444;BME280;10381;53.730;10.010;2023-02-10T12:55:59;102745.59;;;6.12;100.00
20444;BME280;10381;53.730;10.010;2023-02-10T13:00:05;102752.28;;;6.43;100.00
20444;BME280;10381;53.730;10.010;2023-02-10T13:08:36;102750.28;;;6.50;100.00
20444;BME280;10381;53.730;10.010;2023-02-10T13:12:41;102754.97;;;6.42;100.00
20444;BME280;10381;53.730;10.010;2023-02-10T13:16:50;102744.25;;;6.24;100.00
20444;BME280;10381;53.730;10.010;2023-02-10T13:21:00;102734.00;;;6.40;100.00
20444;BME280;10381;53.730;10.010;2023-02-10T13:25:18;102738.50;;;6.36;100.00
20444;BME280;10381;53.730;10.010;2023-02-10T13:29:47;102726.75;;;6.67;100.00
20444;BME280;10381;53.730;10.010;2023-02-10T13:34:03;102721.00;;;6.35;100.00
20444;BME280;10381;53.730;10.010;2023-02-10T13:38:09;102719.34;;;6.55;100.00
20444;BME280;10381;53.730;10.010;2023-02-10T13:42:21;102699.59;;;6.45;100.00
20444;BME280;10381;53.730;10.010;2023-02-10T13:46:27;102696.38;;;6.58;100.00
20444;BME280;10381;53.730;10.010;2023-02-10T13:50:46;102694.19;;;6.48;100.00
20444;BME280;10381;53.730;10.010;2023-02-10T13:59:38;102683.66;;;6.48;100.00
20444;BME280;10381;53.730;10.010;2023-02-10T14:03:38;102691.19;;;6.57;100.00
20444;BME280;10381;53.730;10.010;2023-02-10T14:07:38;102682.66;;;6.50;100.00
20444;BME280;10381;53.730;10.010;2023-02-10T14:11:41;102685.84;;;6.36;100.00
20444;BME280;10381;53.730;10.010;2023-02-10T14:15:56;102673.06;;;6.27;100.00
20444;BME280;10381;53.730;10.010;2023-02-10T14:19:57;102677.09;;;6.36;100.00
20444;BME280;10381;53.730;10.010;2023-02-10T14:23:58;102672.47;;;6.43;100.00
20444;BME280;10381;53.730;10.010;2023-02-10T14:27:59;102677.59;;;6.46;100.00
20444;BME280;10381;53.730;10.010;2023-02-10T14:32:02;102661.94;;;6.43;100.00
20444;BME280;10381;53.730;10.010;2023-02-10T14:36:17;102664.72;;;6.60;100.00
20444;BME280;10381;53.730;10.010;2023-02-10T14:40:21;102669.13;;;6.59;100.00
20444;BME280;10381;53.730;10.010;2023-02-10T14:44:26;102669.56;;;6.49;100.00
20444;BME280;10381;53.730;10.010;2023-02-10T14:48:29;102647.41;;;6.32;100.00
20444;BME280;10381;53.730;10.010;2023-02-10T14:52:33;102647.91;;;6.20;100.00
20444;BME280;10381;53.730;10.010;2023-02-10T14:56:33;102636.53;;;5.97;100.00
20444;BME280;10381;53.730;10.010;2023-02-10T15:00:34;102631.25;;;5.97;100.00
20444;BME280;10381;53.730;10.010;2023-02-10T15:04:36;102627.84;;;5.95;100.00
20444;BME280;10381;53.730;10.010;2023-02-10T15:12:40;102624.06;;;5.79;100.00
20444;BME280;10381;53.730;10.010;2023-02-10T15:16:41;102617.09;;;5.78;100.00
20444;BME280;10381;53.730;10.010;2023-02-10T15:20:54;102604.84;;;5.77;100.00
20444;BME280;10381;53.730;10.010;2023-02-10T15:24:55;102610.31;;;5.72;100.00
20444;BME280;10381;53.730;10.010;2023-02-10T15:29:08;102608.63;;;5.70;100.00
20444;BME280;10381;53.730;10.010;2023-02-10T15:33:17;102625.66;;;5.60;100.00
20444;BME280;10381;53.730;10.010;2023-02-10T15:37:24;102621.44;;;5.55;100.00
20444;BME280;10381;53.730;10.010;2023-02-10T15:45:32;102619.41;;;5.40;100.00
20444;BME280;10381;53.730;10.010;2023-02-10T15:49:32;102628.09;;;5.42;100.00
20444;BME280;10381;53.730;10.010;2023-02-10T15:53:32;102637.97;;;5.36;100.00
20444;BME280;10381;53.730;10.010;2023-02-10T15:57:33;102652.88;;;5.35;100.00
20444;BME280;10381;53.730;10.010;2023-02-10T16:01:33;102651.25;;;5.31;100.00
20444;BME280;10381;53.730;10.010;2023-02-10T16:05:35;102649.69;;;5.27;100.00
20444;BME280;10381;53.730;10.010;2023-02-10T16:09:37;102630.53;;;5.23;100.00
20444;BME280;10381;53.730;10.010;2023-02-10T16:13:37;102635.81;;;5.22;100.00
20444;BME280;10381;53.730;10.010;2023-02-10T16:17:39;102629.84;;;5.18;100.00
20444;BME280;10381;53.730;10.010;2023-02-10T16:21:41;102623.94;;;5.11;100.00
20444;BME280;10381;53.730;10.010;2023-02-10T16:25:42;102625.75;;;5.09;100.00
20444;BME280;10381;53.730;10.010;2023-02-10T16:29:43;102614.56;;;5.04;100.00
20444;BME280;10381;53.730;10.010;2023-02-10T16:33:44;102616.34;;;5.04;100.00
20444;BME280;10381;53.730;10.010;2023-02-10T16:37:45;102624.50;;;4.96;100.00
20444;BME280;10381;53.730;10.010;2023-02-10T16:41:46;102619.81;;;5.04;100.00
20444;BME280;10381;53.730;10.010;2023-02-10T16:45:46;102613.75;;;5.02;100.00
20444;BME280;10381;53.730;10.010;2023-02-10T16:49:48;102603.66;;;4.91;100.00
20444;BME280;10381;53.730;10.010;2023-02-10T16:53:48;102605.50;;;4.88;100.00
20444;BME280;10381;53.730;10.010;2023-02-10T16:57:54;102594.28;;;4.84;100.00
20444;BME280;10381;53.730;10.010;2023-02-10T17:01:54;102593.31;;;4.87;100.00
20444;BME280;10381;53.730;10.010;2023-02-10T17:05:55;102587.38;;;4.82;100.00
20444;BME280;10381;53.730;10.010;2023-02-10T17:09:55;102594.59;;;4.75;100.00
20444;BME280;10381;53.730;10.010;2023-02-10T17:13:55;102590.41;;;4.69;100.00
20444;BME280;10381;53.730;10.010;2023-02-10T17:17:56;102605.41;;;4.66;100.00
20444;BME280;10381;53.730;10.010;2023-02-10T17:21:56;102602.63;;;4.70;100.00
20444;BME280;10381;53.730;10.010;2023-02-10T17:25:56;102618.25;;;4.74;100.00
20444;BME280;10381;53.730;10.010;2023-02-10T17:29:57;102610.38;;;4.74;100.00
20444;BME280;10381;53.730;10.010;2023-02-10T17:33:57;102618.19;;;4.77;100.00
20444;BME280;10381;53.730;10.010;2023-02-10T17:37:57;102616.75;;;4.66;100.00
20444;BME280;10381;53.730;10.010;2023-02-10T17:42:18;102603.00;;;4.60;100.00
20444;BME280;10381;53.730;10.010;2023-02-10T17:46:20;102588.25;;;4.56;100.00
20444;BME280;10381;53.730;10.010;2023-02-10T17:50:21;102587.34;;;4.57;100.00
20444;BME280;10381;53.730;10.010;2023-02-10T17:54:21;102576.81;;;4.58;100.00
20444;BME280;10381;53.730;10.010;2023-02-10T17:58:22;102571.66;;;4.55;100.00
20444;BME280;10381;53.730;10.010;2023-02-10T18:02:23;102573.38;;;4.56;100.00
20444;BME280;10381;53.730;10.010;2023-02-10T18:06:24;102573.63;;;4.48;100.00
20444;BME280;10381;53.730;10.010;2023-02-10T18:10:26;102578.03;;;4.48;100.00
20444;BME280;10381;53.730;10.010;2023-02-10T18:14:26;102559.28;;;4.59;100.00
20444;BME280;10381;53.730;10.010;2023-02-10T18:18:26;102562.88;;;4.56;100.00
20444;BME280;10381;53.730;10.010;2023-02-10T18:22:26;102561.75;;;4.38;100.00
20444;BME280;10381;53.730;10.010;2023-02-10T18:26:27;102553.63;;;4.19;100.00
20444;BME280;10381;53.730;10.010;2023-02-10T18:30:27;102555.25;;;4.23;100.00
20444;BME280;10381;53.730;10.010;2023-02-10T18:34:27;102550.69;;;4.29;100.00
20444;BME280;10381;53.730;10.010;2023-02-10T18:38:27;102557.59;;;4.31;100.00
20444;BME280;10381;53.730;10.010;2023-02-10T18:42:28;102554.28;;;4.26;100.00
20444;BME280;10381;53.730;10.010;2023-02-10T18:46:28;102543.63;;;4.04;100.00
20444;BME280;10381;53.730;10.010;2023-02-10T18:50:28;102550.38;;;4.11;100.00
20444;BME280;10381;53.730;10.010;2023-02-10T18:54:29;102541.81;;;4.06;100.00
20444;BME280;10381;53.730;10.010;2023-02-10T18:58:29;102545.50;;;4.00;100.00
20444;BME280;10381;53.730;10.010;2023-02-10T19:02:29;102534.66;;;4.11;100.00
20444;BME280;10381;53.730;10.010;2023-02-10T19:06:31;102523.72;;;3.98;100.00
20444;BME280;10381;53.730;10.010;2023-02-10T19:10:31;102519.47;;;3.94;100.00
20444;BME280;10381;53.730;10.010;2023-02-10T19:14:33;102513.66;;;3.84;100.00
20444;BME280;10381;53.730;10.010;2023-02-10T19:18:34;102506.63;;;3.87;100.00
20444;BME280;10381;53.730;10.010;2023-02-10T19:22:34;102504.00;;;3.87;100.00
20444;BME280;10381;53.730;10.010;2023-02-10T19:26:34;102508.22;;;3.91;100.00
20444;BME280;10381;53.730;10.010;2023-02-10T19:30:38;102514.41;;;3.90;100.00
20444;BME280;10381;53.730;10.010;2023-02-10T19:34:39;102505.72;;;3.88;100.00
20444;BME280;10381;53.730;10.010;2023-02-10T19:38:39;102499.78;;;3.82;100.00
20444;BME280;10381;53.730;10.010;2023-02-10T19:42:40;102505.91;;;3.81;100.00
20444;BME280;10381;53.730;10.010;2023-02-10T19:46:40;102488.63;;;3.76;100.00
20444;BME280;10381;53.730;10.010;2023-02-10T19:50:40;102476.97;;;3.84;100.00
20444;BME280;10381;53.730;10.010;2023-02-10T19:54:40;102474.03;;;3.94;100.00
20444;BME280;10381;53.730;10.010;2023-02-10T19:58:41;102467.78;;;3.98;100.00
20444;BME280;10381;53.730;10.010;2023-02-10T20:02:41;102470.53;;;3.95;100.00
20444;BME280;10381;53.730;10.010;2023-02-10T20:06:44;102469.75;;;3.91;100.00
20444;BME280;10381;53.730;10.010;2023-02-10T20:10:49;102459.25;;;3.91;100.00
20444;BME280;10381;53.730;10.010;2023-02-10T20:14:50;102469.75;;;3.91;100.00
20444;BME280;10381;53.730;10.010;2023-02-10T20:18:50;102482.53;;;4.02;100.00
20444;BME280;10381;53.730;10.010;2023-02-10T20:22:51;102473.84;;;4.00;100.00
20444;BME280;10381;53.730;10.010;2023-02-10T20:26:52;102468.06;;;3.90;100.00
20444;BME280;10381;53.730;10.010;2023-02-10T20:30:53;102464.16;;;4.02;100.00
20444;BME280;10381;53.730;10.010;2023-02-10T20:34:53;102480.91;;;3.98;100.00
20444;BME280;10381;53.730;10.010;2023-02-10T20:38:54;102488.41;;;4.09;100.00
20444;BME280;10381;53.730;10.010;2023-02-10T20:42:54;102470.00;;;4.10;100.00
20444;BME280;10381;53.730;10.010;2023-02-10T20:46:54;102477.91;;;4.09;100.00
20444;BME280;10381;53.730;10.010;2023-02-10T20:51:03;102470.91;;;4.09;100.00
20444;BME280;10381;53.730;10.010;2023-02-10T20:55:06;102464.78;;;4.09;100.00
20444;BME280;10381;53.730;10.010;2023-02-10T20:59:06;102474.53;;;4.05;100.00
20444;BME280;10381;53.730;10.010;2023-02-10T21:03:06;102480.47;;;4.10;100.00
20444;BME280;10381;53.730;10.010;2023-02-10T21:07:07;102469.88;;;4.13;100.00
20444;BME280;10381;53.730;10.010;2023-02-10T21:11:09;102450.72;;;4.11;100.00
20444;BME280;10381;53.730;10.010;2023-02-10T21:15:10;102456.88;;;4.10;100.00
20444;BME280;10381;53.730;10.010;2023-02-10T21:19:10;102437.13;;;4.00;100.00
20444;BME280;10381;53.730;10.010;2023-02-10T21:23:10;102446.00;;;3.96;100.00
20444;BME280;10381;53.730;10.010;2023-02-10T21:27:11;102443.41;;;3.94;100.00
20444;BME280;10381;53.730;10.010;2023-02-10T21:31:20;102433.91;;;3.92;100.00
20444;BME280;10381;53.730;10.010;2023-02-10T21:35:22;102445.06;;;3.97;100.00
20444;BME280;10381;53.730;10.010;2023-02-10T21:39:23;102442.47;;;3.97;100.00
20444;BME280;10381;53.730;10.010;2023-02-10T21:43:23;102433.69;;;3.98;100.00
20444;BME280;10381;53.730;10.010;2023-02-10T21:47:23;102412.59;;;4.01;100.00
20444;BME280;10381;53.730;10.010;2023-02-10T21:51:24;102412.59;;;4.01;100.00
20444;BME280;10381;53.730;10.010;2023-02-10T21:55:25;102395.91;;;4.03;100.00
20444;BME280;10381;53.730;10.010;2023-02-10T21:59:25;102389.81;;;4.03;100.00
20444;BME280;10381;53.730;10.010;2023-02-10T22:03:25;102383.72;;;4.02;100.00
20444;BME280;10381;53.730;10.010;2023-02-10T22:07:28;102372.13;;;4.08;100.00
20444;BME280;10381;53.730;10.010;2023-02-10T22:11:29;102381.66;;;4.11;100.00
20444;BME280;10381;53.730;10.010;2023-02-10T22:15:29;102385.38;;;4.05;100.00
20444;BME280;10381;53.730;10.010;2023-02-10T22:19:30;102374.19;;;4.00;100.00